This is the latest recevied weather packets stored in our database for station/object OE3TEC-15. If no packets are shown the sender has not sent any weather packets the latest 10 day(s).
| Time | Temp. | Humidity | Pressure | Rain* | Wind** | Luminosity | Snow |
|---|---|---|---|---|---|---|---|
| 1777574607 | 6.67° C | 52% | 1028.9 hPa | 0 mm | - | 0 W/m² | - |
| 1777573999 | 6.67° C | 52% | 1028.8 hPa | 0 mm | - | 0 W/m² | - |
| 1777573391 | 7.22° C | 51% | 1028.8 hPa | 0 mm | - | 0 W/m² | - |
| 1777572784 | 8.89° C | 46% | 1028.6 hPa | 0 mm | - | 1 W/m² | - |
| 1777572178 | 10° C | 39% | 1028.4 hPa | 0 mm | - | 4 W/m² | - |
| 1777571572 | 10.56° C | 36% | 1028.5 hPa | 0 mm | - | 7 W/m² | - |
| 1777570964 | 12.78° C | 32% | 1028.4 hPa | 0 mm | - | 11 W/m² | - |
| 1777570356 | 13.89° C | 28% | 1028.3 hPa | 0 mm | - | 15 W/m² | - |
| 1777569749 | 14.44° C | 26% | 1028.3 hPa | 0 mm | - | 19 W/m² | - |
| 1777569141 | 14.44° C | 26% | 1028.4 hPa | 0 mm | - | 26 W/m² | - |
| 1777568535 | 14.44° C | 26% | 1028.3 hPa | 0 mm | - | 28 W/m² | - |
| 1777567928 | 14.44° C | 25% | 1028.6 hPa | 0 mm | - | 30 W/m² | - |
| 1777567320 | 15° C | 25% | 1028.4 hPa | 0 mm | - | 37 W/m² | - |
| 1777566712 | 15° C | 25% | 1028.4 hPa | 0 mm | - | 39 W/m² | - |
| 1777566105 | 15.56° C | 24% | 1028.3 hPa | 0 mm | - | 49 W/m² | - |
| 1777565498 | 15.56° C | 24% | 1028.4 hPa | 0 mm | - | 66 W/m² | - |
| 1777564896 | 15.56° C | 23% | 1028.3 hPa | 0 mm | - | 99 W/m² | - |
| 1777564293 | 15.56° C | 23% | 1028.5 hPa | 0 mm | - | 113 W/m² | - |
| 1777563685 | 16.11° C | 23% | 1028.3 hPa | 0 mm | - | 151 W/m² | - |
| 1777563078 | 16.11° C | 22% | 1028.4 hPa | 0 mm | - | 164 W/m² | - |
| 1777562478 | 15.56° C | 23% | 1028.6 hPa | 0 mm | - | 207 W/m² | - |
| 1777561873 | 15.56° C | 22% | 1028.5 hPa | 0 mm | - | 226 W/m² | - |
| 1777561266 | 16.11° C | 23% | 1028.8 hPa | 0 mm | - | 264 W/m² | - |
| 1777560660 | 15.56° C | 24% | 1028.9 hPa | 0 mm | - | 287 W/m² | - |
| 1777560051 | 16.11° C | 26% | 1029 hPa | 0 mm | - | 309 W/m² | - |
* Rain latest hour (hover to see other rain measurements)
** Current wind speed in m/s (hover to see current wind gust speed)